Time;durP1;ratioP1;P1;durP2;ratioP2;P2;SDS_P1;SDS_P2;PMS_P1;PMS_P2;Temp;Humidity;BMP_temperature;BMP_pressure;BME280_temperature;BME280_humidity;BME280_pressure;Samples;Min_cycle;Max_cycle;Signal;HPM_P1;HPM_P2
2023/09/13 00:02:21;;;;;;;;;;;18.80;99.90;;;;;;4932815;29;19937;-82
2023/09/13 00:04:46;;;;;;;;;;;18.80;99.90;;;;;;4933720;29;19935;-82
2023/09/13 00:07:12;;;;;;;;;;;18.70;99.90;;;;;;4933516;29;19931;-84
2023/09/13 00:09:41;;;;;;;;;;;18.70;99.90;;;;;;4933549;29;20009;-82
2023/09/13 00:12:10;;;;;;;;;;;18.70;99.90;;;;;;4933543;29;20017;-84
2023/09/13 00:14:35;;;;;;;;;;;18.70;99.90;;;;;;4934325;29;19969;-83
2023/09/13 00:17:01;;;;;;;;;;;18.70;99.90;;;;;;4934218;29;19963;-86
2023/09/13 00:19:27;;;;;;;;;;;18.80;99.90;;;;;;4933963;28;19953;-83
2023/09/13 00:21:53;;;;;;;;;;;18.70;99.90;;;;;;4934286;29;19927;-82
2023/09/13 00:24:19;;;;;;;;;;;18.70;99.90;;;;;;4932905;29;19927;-83
2023/09/13 00:26:44;;;;;;;;;;;18.70;99.90;;;;;;4933044;29;19931;-84
2023/09/13 00:29:10;;;;;;;;;;;18.80;99.90;;;;;;4934255;29;19934;-82
2023/09/13 00:31:35;;;;;;;;;;;18.80;99.90;;;;;;4933819;29;19927;-83
2023/09/13 00:34:01;;;;;;;;;;;18.70;99.90;;;;;;4916289;29;19933;-82
2023/09/13 00:36:26;;;;;;;;;;;18.80;99.90;;;;;;4933684;29;19937;-82
2023/09/13 00:38:52;;;;;;;;;;;18.80;99.90;;;;;;4933535;29;19926;-83
2023/09/13 00:41:18;;;;;;;;;;;18.80;99.90;;;;;;4933010;29;19927;-85
2023/09/13 00:43:43;;;;;;;;;;;18.80;99.90;;;;;;4935363;29;20341;-84
2023/09/13 00:46:09;;;;;;;;;;;18.80;99.90;;;;;;4933276;29;19934;-83
2023/09/13 00:48:35;;;;;;;;;;;18.80;99.90;;;;;;4933710;29;19980;-84
2023/09/13 00:51:01;;;;;;;;;;;18.80;99.90;;;;;;4933783;29;20005;-83
2023/09/13 00:53:27;;;;;;;;;;;18.70;99.90;;;;;;4929238;29;19943;-83
2023/09/13 00:55:53;;;;;;;;;;;18.80;99.90;;;;;;4930677;29;20089;-82
2023/09/13 00:58:18;;;;;;;;;;;18.70;99.90;;;;;;4933736;29;20395;-83
2023/09/13 01:00:44;;;;;;;;;;;18.70;99.90;;;;;;4933012;29;20130;-83
2023/09/13 01:03:10;;;;;;;;;;;18.70;99.90;;;;;;4933155;29;19927;-84
2023/09/13 01:05:36;;;;;;;;;;;18.70;99.90;;;;;;4932536;28;19938;-83
2023/09/13 01:08:02;;;;;;;;;;;18.70;99.90;;;;;;4932868;29;19927;-83
2023/09/13 01:10:28;;;;;;;;;;;18.60;99.90;;;;;;4931881;28;19933;-84
2023/09/13 01:12:53;;;;;;;;;;;18.60;99.90;;;;;;4931629;29;20279;-82
2023/09/13 01:15:19;;;;;;;;;;;18.60;99.90;;;;;;4931753;29;19945;-83
2023/09/13 01:17:44;;;;;;;;;;;18.60;99.90;;;;;;4931531;28;20027;-83
2023/09/13 01:20:16;;;;;;;;;;;18.60;99.90;;;;;;4930288;29;20018;-82
2023/09/13 01:22:59;;;;;;;;;;;18.60;99.90;;;;;;4930714;29;20010;-83
2023/09/13 01:25:44;;;;;;;;;;;18.60;99.90;;;;;;4920917;29;19931;-83
2023/09/13 01:28:29;;;;;;;;;;;18.60;99.90;;;;;;4924449;28;19928;-84
2023/09/13 01:30:55;;;;;;;;;;;18.60;99.90;;;;;;4932250;29;19974;-82
2023/09/13 01:33:22;;;;;;;;;;;18.60;99.90;;;;;;4931996;29;20006;-83
2023/09/13 01:35:47;;;;;;;;;;;18.50;99.90;;;;;;4933215;29;19933;-83
2023/09/13 01:38:13;;;;;;;;;;;18.50;99.90;;;;;;4915276;29;19927;-83
2023/09/13 01:40:39;;;;;;;;;;;18.50;99.90;;;;;;4932670;29;20703;-83
2023/09/13 01:43:06;;;;;;;;;;;18.50;99.90;;;;;;4934008;29;19934;-82
2023/09/13 01:45:32;;;;;;;;;;;18.50;99.90;;;;;;4934892;28;20030;-83
2023/09/13 01:47:59;;;;;;;;;;;18.40;99.90;;;;;;4933659;28;19926;-82
2023/09/13 01:50:24;;;;;;;;;;;18.40;99.90;;;;;;4931920;29;19931;-82
2023/09/13 01:52:50;;;;;;;;;;;18.40;99.90;;;;;;4931994;29;19958;-82
2023/09/13 01:55:16;;;;;;;;;;;18.40;99.90;;;;;;4931178;29;19926;-82
2023/09/13 01:57:41;;;;;;;;;;;18.40;99.90;;;;;;4917783;28;20061;-82
2023/09/13 02:00:07;;;;;;;;;;;18.40;99.90;;;;;;4932548;29;20374;-83
2023/09/13 02:02:33;;;;;;;;;;;18.40;99.90;;;;;;4931666;28;19938;-82
2023/09/13 02:04:58;;;;;;;;;;;18.40;99.90;;;;;;4931502;29;20374;-83
2023/09/13 02:07:24;;;;;;;;;;;18.40;99.90;;;;;;4931453;29;19926;-83
2023/09/13 02:09:49;;;;;;;;;;;18.40;99.90;;;;;;4932043;29;19970;-83
2023/09/13 02:12:15;;;;;;;;;;;18.40;99.90;;;;;;4932785;29;20348;-82
2023/09/13 02:14:41;;;;;;;;;;;18.30;99.90;;;;;;4932439;29;19933;-82
2023/09/13 02:17:07;;;;;;;;;;;18.30;99.90;;;;;;4931362;29;19942;-82
2023/09/13 02:19:33;;;;;;;;;;;18.20;99.90;;;;;;4929281;29;19933;-85
2023/09/13 02:21:59;;;;;;;;;;;18.30;99.90;;;;;;4926518;29;19927;-82
2023/09/13 02:24:24;;;;;;;;;;;18.20;99.90;;;;;;4932073;29;20328;-82
2023/09/13 02:26:56;;;;;;;;;;;18.20;99.90;;;;;;4932328;29;19926;-82
2023/09/13 02:29:22;;;;;;;;;;;18.20;99.90;;;;;;4946646;28;19934;-83
2023/09/13 02:31:48;;;;;;;;;;;18.20;99.90;;;;;;4932393;29;20033;-83
2023/09/13 02:34:13;;;;;;;;;;;18.20;99.90;;;;;;4931288;29;20370;-83
2023/09/13 02:36:39;;;;;;;;;;;18.20;99.90;;;;;;4929434;29;19927;-82
2023/09/13 02:39:04;;;;;;;;;;;18.20;99.90;;;;;;4931325;29;19976;-82
2023/09/13 02:41:30;;;;;;;;;;;18.20;99.90;;;;;;4931439;29;19976;-83
2023/09/13 02:43:55;;;;;;;;;;;18.20;99.90;;;;;;4925153;29;19931;-82
2023/09/13 02:46:21;;;;;;;;;;;18.10;99.90;;;;;;4929465;29;20290;-88
2023/09/13 02:48:47;;;;;;;;;;;18.10;99.90;;;;;;4930064;28;19974;-83
2023/09/13 02:51:16;;;;;;;;;;;18.20;99.90;;;;;;4931293;28;19927;-84
2023/09/13 02:53:41;;;;;;;;;;;18.10;99.90;;;;;;4929598;29;19927;-82
2023/09/13 02:56:07;;;;;;;;;;;18.10;99.90;;;;;;4913391;28;19931;-83
2023/09/13 02:58:33;;;;;;;;;;;18.10;99.90;;;;;;4928610;29;19930;-83
2023/09/13 03:01:03;;;;;;;;;;;18.10;99.90;;;;;;4931713;29;19931;-82
2023/09/13 03:03:29;;;;;;;;;;;18.10;99.90;;;;;;4928044;28;19934;-82
2023/09/13 03:05:54;;;;;;;;;;;18.00;99.90;;;;;;4914471;28;19930;-83
2023/09/13 03:08:20;;;;;;;;;;;18.00;99.90;;;;;;4930631;29;19957;-83
2023/09/13 03:10:45;;;;;;;;;;;18.00;99.90;;;;;;4931107;29;20368;-82
2023/09/13 03:13:11;;;;;;;;;;;18.00;99.90;;;;;;4931706;29;19927;-84
2023/09/13 03:15:36;;;;;;;;;;;18.00;99.90;;;;;;4917766;29;19931;-83
2023/09/13 03:18:02;;;;;;;;;;;17.90;99.90;;;;;;4930799;29;19930;-84
2023/09/13 03:20:28;;;;;;;;;;;17.90;99.90;;;;;;4930983;28;19931;-82
2023/09/13 03:22:54;;;;;;;;;;;17.90;99.90;;;;;;4931970;29;19927;-83
2023/09/13 03:25:20;;;;;;;;;;;17.80;99.90;;;;;;4930932;29;20267;-82
2023/09/13 03:27:47;;;;;;;;;;;17.70;99.90;;;;;;4931905;29;19950;-82
2023/09/13 03:30:13;;;;;;;;;;;17.70;99.90;;;;;;4930831;29;19930;-83
2023/09/13 03:32:38;;;;;;;;;;;17.70;99.90;;;;;;4933398;29;19933;-82
2023/09/13 03:35:05;;;;;;;;;;;17.60;99.90;;;;;;4935193;29;20294;-82
2023/09/13 03:37:32;;;;;;;;;;;17.60;99.90;;;;;;4933905;29;19930;-82
2023/09/13 03:39:58;;;;;;;;;;;17.50;99.90;;;;;;4933788;29;19927;-82
2023/09/13 03:42:23;;;;;;;;;;;17.50;99.90;;;;;;4934450;29;20279;-83
2023/09/13 03:44:49;;;;;;;;;;;17.50;99.90;;;;;;4941411;29;19974;-83
2023/09/13 03:47:15;;;;;;;;;;;17.40;99.90;;;;;;4934937;29;19975;-82
2023/09/13 03:49:40;;;;;;;;;;;17.40;99.90;;;;;;4933151;28;20354;-82
2023/09/13 03:52:06;;;;;;;;;;;17.40;99.90;;;;;;4934871;29;19930;-82
2023/09/13 03:54:31;;;;;;;;;;;17.40;99.90;;;;;;4933173;29;19934;-83
2023/09/13 03:56:57;;;;;;;;;;;17.30;99.90;;;;;;4934744;29;19973;-82
2023/09/13 03:59:23;;;;;;;;;;;17.30;99.90;;;;;;4934246;29;19927;-83
2023/09/13 04:01:49;;;;;;;;;;;17.20;99.90;;;;;;4933585;29;20381;-82
2023/09/13 04:04:14;;;;;;;;;;;17.20;99.90;;;;;;4933209;28;19931;-83
2023/09/13 04:06:40;;;;;;;;;;;17.20;99.90;;;;;;4933708;28;19973;-83
2023/09/13 04:09:06;;;;;;;;;;;17.20;99.90;;;;;;4934547;29;19927;-83
2023/09/13 04:11:32;;;;;;;;;;;17.20;99.90;;;;;;4932925;29;21359;-84
2023/09/13 04:13:57;;;;;;;;;;;17.20;99.90;;;;;;4933502;29;19943;-82
2023/09/13 04:16:23;;;;;;;;;;;17.20;99.90;;;;;;4933918;29;20052;-84
2023/09/13 04:18:48;;;;;;;;;;;17.20;99.90;;;;;;4934547;29;19930;-82
2023/09/13 04:21:14;;;;;;;;;;;17.20;99.90;;;;;;4932123;29;19931;-82
2023/09/13 04:23:39;;;;;;;;;;;17.10;99.90;;;;;;4934247;28;19927;-82
2023/09/13 04:26:05;;;;;;;;;;;17.10;99.90;;;;;;4933870;29;20309;-82
2023/09/13 04:28:32;;;;;;;;;;;17.10;99.90;;;;;;4934300;29;19973;-83
2023/09/13 04:30:58;;;;;;;;;;;17.10;99.90;;;;;;4933356;28;19930;-84
2023/09/13 04:33:42;;;;;;;;;;;17.10;99.90;;;;;;4932410;29;20378;-83
2023/09/13 04:36:08;;;;;;;;;;;17.00;99.90;;;;;;4931880;29;19949;-83
2023/09/13 04:38:33;;;;;;;;;;;17.00;99.90;;;;;;4933037;29;20366;-83
2023/09/13 04:40:59;;;;;;;;;;;17.00;99.90;;;;;;4933183;29;19937;-82
2023/09/13 04:43:24;;;;;;;;;;;17.00;99.90;;;;;;4934786;28;19969;-82
2023/09/13 04:45:50;;;;;;;;;;;17.00;99.90;;;;;;4933566;28;19927;-82
2023/09/13 04:48:15;;;;;;;;;;;17.00;99.90;;;;;;4932700;29;19934;-83
2023/09/13 04:50:41;;;;;;;;;;;17.00;99.90;;;;;;4933390;29;19934;-82
2023/09/13 04:53:07;;;;;;;;;;;17.00;99.90;;;;;;4932112;29;19931;-84
2023/09/13 04:55:32;;;;;;;;;;;17.00;99.90;;;;;;4933403;28;20396;-83
2023/09/13 04:57:58;;;;;;;;;;;17.00;99.90;;;;;;4932782;29;19934;-83
2023/09/13 05:00:26;;;;;;;;;;;16.90;99.90;;;;;;4933794;29;19957;-82
2023/09/13 05:02:52;;;;;;;;;;;16.90;99.90;;;;;;4931963;29;20009;-81
2023/09/13 05:05:17;;;;;;;;;;;17.00;99.90;;;;;;4932340;28;20026;-83
2023/09/13 05:07:43;;;;;;;;;;;17.00;99.90;;;;;;4932859;29;19934;-82
2023/09/13 05:10:09;;;;;;;;;;;17.00;99.90;;;;;;4933982;29;19927;-83
2023/09/13 05:12:34;;;;;;;;;;;16.90;99.90;;;;;;4937278;28;19933;-83
2023/09/13 05:15:00;;;;;;;;;;;16.90;99.90;;;;;;4927086;28;20362;-85
2023/09/13 05:17:25;;;;;;;;;;;16.80;99.90;;;;;;4931410;29;19926;-83
2023/09/13 05:19:51;;;;;;;;;;;16.80;99.90;;;;;;4947937;28;20018;-82
2023/09/13 05:22:16;;;;;;;;;;;16.70;99.90;;;;;;4934011;29;19931;-83
2023/09/13 05:24:42;;;;;;;;;;;16.70;99.90;;;;;;4931844;29;19926;-83
2023/09/13 05:27:07;;;;;;;;;;;16.60;99.90;;;;;;4931733;29;19933;-84
2023/09/13 05:29:33;;;;;;;;;;;16.60;99.90;;;;;;4933967;29;19937;-87
2023/09/13 05:31:59;;;;;;;;;;;16.50;99.90;;;;;;4932434;28;19927;-84
2023/09/13 05:34:25;;;;;;;;;;;16.50;99.90;;;;;;4932535;29;19978;-86
2023/09/13 05:36:50;;;;;;;;;;;16.40;99.90;;;;;;4933398;28;19970;-83
2023/09/13 05:39:16;;;;;;;;;;;16.40;99.90;;;;;;4916270;29;19958;-84
2023/09/13 05:41:42;;;;;;;;;;;16.30;99.90;;;;;;4932893;29;19938;-85
2023/09/13 05:44:09;;;;;;;;;;;16.30;99.90;;;;;;4936472;28;19970;-84
2023/09/13 05:46:35;;;;;;;;;;;16.10;99.90;;;;;;4953497;28;19976;-85
2023/09/13 05:49:00;;;;;;;;;;;16.00;99.90;;;;;;4933287;28;20404;-85
2023/09/13 05:51:26;;;;;;;;;;;15.90;99.90;;;;;;4932131;28;19934;-85
2023/09/13 05:53:51;;;;;;;;;;;15.70;99.90;;;;;;4931959;28;19934;-84
2023/09/13 05:56:17;;;;;;;;;;;15.60;99.90;;;;;;4937416;28;19935;-86
2023/09/13 05:58:43;;;;;;;;;;;15.50;99.90;;;;;;4932694;29;19981;-85
2023/09/13 06:01:09;;;;;;;;;;;15.40;99.90;;;;;;4916146;29;19927;-84
2023/09/13 06:03:35;;;;;;;;;;;15.30;99.90;;;;;;4932791;29;20388;-87
2023/09/13 06:06:00;;;;;;;;;;;15.20;99.90;;;;;;4964548;28;19934;-85
2023/09/13 06:08:26;;;;;;;;;;;15.10;99.90;;;;;;4932783;29;20016;-85
2023/09/13 06:10:52;;;;;;;;;;;15.10;99.90;;;;;;4913651;29;20312;-86
2023/09/13 06:13:17;;;;;;;;;;;15.00;99.90;;;;;;4914958;29;19937;-85
2023/09/13 06:15:43;;;;;;;;;;;14.90;99.90;;;;;;4932556;29;20010;-87
2023/09/13 06:18:08;;;;;;;;;;;14.90;99.90;;;;;;4931101;29;19988;-85
2023/09/13 06:20:34;;;;;;;;;;;14.90;99.90;;;;;;4932227;29;19972;-85
2023/09/13 06:22:59;;;;;;;;;;;14.90;99.90;;;;;;4915888;28;19933;-85
2023/09/13 06:25:25;;;;;;;;;;;14.80;99.90;;;;;;4929304;28;19934;-84
2023/09/13 06:27:51;;;;;;;;;;;14.80;99.90;;;;;;4913863;28;19930;-85
2023/09/13 06:30:16;;;;;;;;;;;14.80;99.90;;;;;;4936941;28;19930;-85
2023/09/13 06:32:42;;;;;;;;;;;14.80;99.90;;;;;;4932721;28;19927;-83
2023/09/13 06:35:11;;;;;;;;;;;14.80;99.90;;;;;;4933858;28;20385;-87
2023/09/13 06:37:37;;;;;;;;;;;14.80;99.90;;;;;;4929823;28;20083;-86
2023/09/13 06:40:03;;;;;;;;;;;14.80;99.90;;;;;;4928730;28;19931;-86
2023/09/13 06:42:29;;;;;;;;;;;14.80;99.90;;;;;;4934989;28;20327;-86
2023/09/13 06:44:54;;;;;;;;;;;14.90;99.90;;;;;;4932579;29;20471;-86
2023/09/13 06:47:20;;;;;;;;;;;14.80;99.90;;;;;;4936099;28;19927;-87
2023/09/13 06:49:46;;;;;;;;;;;14.80;99.90;;;;;;4928613;28;19985;-86
2023/09/13 06:52:11;;;;;;;;;;;14.90;99.90;;;;;;4927910;29;20121;-87
2023/09/13 06:54:37;;;;;;;;;;;14.80;99.90;;;;;;4931855;29;19939;-88
2023/09/13 06:57:05;;;;;;;;;;;14.80;99.90;;;;;;4932314;29;19930;-86
2023/09/13 06:59:32;;;;;;;;;;;14.90;99.90;;;;;;4930892;29;19950;-84
2023/09/13 07:01:58;;;;;;;;;;;14.90;99.90;;;;;;4931378;29;19937;-86
2023/09/13 07:04:23;;;;;;;;;;;14.90;99.90;;;;;;4931261;29;20006;-87
2023/09/13 07:06:49;;;;;;;;;;;14.80;99.90;;;;;;4934317;28;20008;-85
2023/09/13 07:09:14;;;;;;;;;;;14.90;99.90;;;;;;4934433;28;20013;-86
2023/09/13 07:11:40;;;;;;;;;;;14.90;99.90;;;;;;4932925;29;19974;-86
2023/09/13 07:14:05;;;;;;;;;;;14.90;99.90;;;;;;4934344;29;19934;-87
2023/09/13 07:16:31;;;;;;;;;;;14.90;99.90;;;;;;4935095;29;20000;-86
2023/09/13 07:18:57;;;;;;;;;;;14.90;99.90;;;;;;4935763;28;19930;-86
2023/09/13 07:21:22;;;;;;;;;;;14.90;99.90;;;;;;4934216;28;19934;-85
2023/09/13 07:23:48;;;;;;;;;;;14.90;99.90;;;;;;4933972;29;20371;-86
2023/09/13 07:26:14;;;;;;;;;;;14.80;99.90;;;;;;4933860;29;19984;-86
2023/09/13 07:28:39;;;;;;;;;;;14.90;99.90;;;;;;4933904;29;20270;-85
2023/09/13 07:31:06;;;;;;;;;;;14.90;99.90;;;;;;4935047;29;19927;-85
2023/09/13 07:33:32;;;;;;;;;;;14.90;99.90;;;;;;4936723;29;19927;-85
2023/09/13 07:35:58;;;;;;;;;;;14.90;99.90;;;;;;4934936;29;19950;-84
2023/09/13 07:38:23;;;;;;;;;;;15.00;99.90;;;;;;4930624;29;20021;-85
2023/09/13 07:40:49;;;;;;;;;;;15.00;99.90;;;;;;4918059;28;20300;-88
2023/09/13 07:43:16;;;;;;;;;;;15.10;99.90;;;;;;4933548;29;19958;-89
2023/09/13 07:45:41;;;;;;;;;;;15.20;99.90;;;;;;4934357;28;19927;-85
2023/09/13 07:48:07;;;;;;;;;;;15.30;99.90;;;;;;4933633;28;19939;-85
2023/09/13 07:50:34;;;;;;;;;;;15.40;99.90;;;;;;4933073;29;19977;-86
2023/09/13 07:52:59;;;;;;;;;;;15.40;99.90;;;;;;4930656;29;20282;-85
2023/09/13 07:55:26;;;;;;;;;;;15.40;99.90;;;;;;4936434;29;20015;-85
2023/09/13 07:57:51;;;;;;;;;;;15.50;99.90;;;;;;4933715;29;19974;-85
2023/09/13 08:00:17;;;;;;;;;;;15.50;99.90;;;;;;4940006;28;19985;-84
2023/09/13 08:02:44;;;;;;;;;;;15.50;99.90;;;;;;4934246;29;19927;-85
2023/09/13 08:05:09;;;;;;;;;;;15.50;99.90;;;;;;4918680;28;19981;-85
2023/09/13 08:07:35;;;;;;;;;;;15.50;99.90;;;;;;4933825;29;19958;-85
2023/09/13 08:10:02;;;;;;;;;;;15.50;99.90;;;;;;4935862;28;19931;-86
2023/09/13 08:12:28;;;;;;;;;;;15.50;99.90;;;;;;4932122;29;20347;-85
2023/09/13 08:14:54;;;;;;;;;;;15.60;99.90;;;;;;4932033;28;19970;-84
2023/09/13 08:17:19;;;;;;;;;;;15.60;99.90;;;;;;4933481;29;19933;-84
2023/09/13 08:19:46;;;;;;;;;;;15.60;99.90;;;;;;4933708;29;19927;-84
2023/09/13 08:22:12;;;;;;;;;;;15.70;99.90;;;;;;4933599;29;19931;-84
2023/09/13 08:24:38;;;;;;;;;;;15.80;99.90;;;;;;4933278;29;19930;-85
2023/09/13 08:27:04;;;;;;;;;;;15.90;99.90;;;;;;4933571;29;19934;-84
2023/09/13 08:29:30;;;;;;;;;;;16.00;99.90;;;;;;4934245;29;20634;-87
2023/09/13 08:31:56;;;;;;;;;;;16.00;99.90;;;;;;4934500;29;19927;-84
2023/09/13 08:34:25;;;;;;;;;;;16.00;99.90;;;;;;4933437;29;19980;-84
2023/09/13 08:36:53;;;;;;;;;;;16.00;99.90;;;;;;4933009;29;19981;-84
2023/09/13 08:39:19;;;;;;;;;;;16.00;99.90;;;;;;4933455;28;20390;-85
2023/09/13 08:41:50;;;;;;;;;;;15.90;99.90;;;;;;4933847;29;20028;-84
2023/09/13 08:44:18;;;;;;;;;;;15.90;99.90;;;;;;4920711;29;20013;-84
2023/09/13 08:46:45;;;;;;;;;;;15.80;99.90;;;;;;4934015;29;20028;-84
2023/09/13 08:49:11;;;;;;;;;;;15.80;99.90;;;;;;4934574;28;19934;-84
2023/09/13 08:51:37;;;;;;;;;;;15.90;99.90;;;;;;4932193;29;19927;-84
2023/09/13 08:54:03;;;;;;;;;;;15.90;99.90;;;;;;4933747;28;19938;-84
2023/09/13 08:56:28;;;;;;;;;;;16.00;99.90;;;;;;4933645;29;19927;-85
2023/09/13 08:58:54;;;;;;;;;;;16.20;99.90;;;;;;4933053;28;19931;-84
2023/09/13 09:01:21;;;;;;;;;;;16.30;99.90;;;;;;4933920;29;19939;-84
2023/09/13 09:03:47;;;;;;;;;;;16.40;99.90;;;;;;4933137;29;20409;-83
2023/09/13 09:06:17;;;;;;;;;;;16.50;99.90;;;;;;4930056;29;20006;-85
2023/09/13 09:08:44;;;;;;;;;;;16.60;99.90;;;;;;4925768;29;19926;-84
2023/09/13 09:11:09;;;;;;;;;;;16.60;99.90;;;;;;4926243;29;20267;-84
2023/09/13 09:13:37;;;;;;;;;;;16.70;99.90;;;;;;4916125;29;19973;-85
2023/09/13 09:16:03;;;;;;;;;;;16.70;99.90;;;;;;4925542;29;19972;-84
2023/09/13 09:18:31;;;;;;;;;;;16.70;99.90;;;;;;4925370;29;20313;-84
2023/09/13 09:20:58;;;;;;;;;;;16.70;99.90;;;;;;4932798;29;19935;-84
2023/09/13 09:23:24;;;;;;;;;;;16.70;99.90;;;;;;4932134;29;19935;-84
2023/09/13 09:25:50;;;;;;;;;;;16.70;99.90;;;;;;4931486;29;19931;-83
2023/09/13 09:28:16;;;;;;;;;;;16.70;99.90;;;;;;4934003;28;20309;-84
2023/09/13 09:30:43;;;;;;;;;;;16.70;99.90;;;;;;4937847;28;19940;-87
2023/09/13 09:33:09;;;;;;;;;;;16.80;99.90;;;;;;4915918;29;20412;-83
2023/09/13 09:35:37;;;;;;;;;;;17.00;99.90;;;;;;4941515;29;19970;-84
2023/09/13 09:38:03;;;;;;;;;;;17.10;99.90;;;;;;4933014;29;20334;-83
2023/09/13 09:40:38;;;;;;;;;;;17.20;99.90;;;;;;4925560;29;19966;-83
2023/09/13 09:43:03;;;;;;;;;;;17.30;99.90;;;;;;4907605;29;20397;-83
2023/09/13 09:45:29;;;;;;;;;;;17.20;99.90;;;;;;4943506;29;19927;-86
2023/09/13 09:47:55;;;;;;;;;;;17.10;99.90;;;;;;4935192;28;19934;-84
2023/09/13 09:50:21;;;;;;;;;;;17.00;99.90;;;;;;4935433;29;20349;-83
2023/09/13 09:52:48;;;;;;;;;;;16.90;99.90;;;;;;4931935;29;20169;-83
2023/09/13 09:55:15;;;;;;;;;;;16.80;99.90;;;;;;4934975;29;20369;-83
2023/09/13 09:57:48;;;;;;;;;;;16.70;99.90;;;;;;4937970;28;19926;-83
2023/09/13 10:00:14;;;;;;;;;;;16.70;99.90;;;;;;4933047;29;19934;-83
2023/09/13 10:02:39;;;;;;;;;;;16.60;99.90;;;;;;4931182;29;19927;-83
2023/09/13 10:05:05;;;;;;;;;;;16.60;99.90;;;;;;4940842;29;19927;-83
2023/09/13 10:07:40;;;;;;;;;;;16.60;99.90;;;;;;4937505;28;20378;-83
2023/09/13 10:10:09;;;;;;;;;;;16.60;99.90;;;;;;4933431;29;19934;-83
2023/09/13 10:12:44;;;;;;;;;;;16.70;99.90;;;;;;4932235;28;20322;-83
2023/09/13 10:15:10;;;;;;;;;;;16.80;99.90;;;;;;4934736;29;19934;-83
2023/09/13 10:17:38;;;;;;;;;;;16.90;99.90;;;;;;4932708;29;19927;-84
2023/09/13 10:20:06;;;;;;;;;;;17.00;99.90;;;;;;4931827;29;20273;-83
2023/09/13 10:22:33;;;;;;;;;;;17.30;99.90;;;;;;4932517;29;19962;-83
2023/09/13 10:25:03;;;;;;;;;;;17.70;99.90;;;;;;4933211;29;20019;-84
2023/09/13 10:27:29;;;;;;;;;;;18.10;99.90;;;;;;4930821;28;19927;-84
2023/09/13 10:29:56;;;;;;;;;;;18.30;99.90;;;;;;4932082;28;19966;-88
2023/09/13 10:32:23;;;;;;;;;;;18.70;99.90;;;;;;4932143;29;20282;-83
2023/09/13 10:34:52;;;;;;;;;;;19.00;99.90;;;;;;4934172;28;19926;-83
2023/09/13 10:37:20;;;;;;;;;;;19.30;99.90;;;;;;4929574;28;19942;-84
2023/09/13 10:39:49;;;;;;;;;;;19.50;99.90;;;;;;4931004;29;20381;-85
2023/09/13 10:42:15;;;;;;;;;;;19.50;99.90;;;;;;4932196;28;19934;-85
2023/09/13 10:44:41;;;;;;;;;;;19.10;99.90;;;;;;4933760;29;19927;-85
2023/09/13 10:47:07;;;;;;;;;;;18.50;99.90;;;;;;4933402;29;19934;-84
2023/09/13 10:49:36;;;;;;;;;;;18.00;99.90;;;;;;4931090;29;20013;-83
2023/09/13 10:52:02;;;;;;;;;;;17.60;99.90;;;;;;4934346;28;19926;-83
2023/09/13 10:54:28;;;;;;;;;;;17.20;99.90;;;;;;4935687;28;19969;-83
2023/09/13 10:56:55;;;;;;;;;;;16.90;99.90;;;;;;4934510;29;20012;-83
2023/09/13 10:59:22;;;;;;;;;;;16.70;99.90;;;;;;4933121;28;19973;-83
2023/09/13 11:01:47;;;;;;;;;;;16.50;99.90;;;;;;4935486;29;20283;-83
2023/09/13 11:04:17;;;;;;;;;;;16.40;99.90;;;;;;4935606;29;19989;-85
2023/09/13 11:06:43;;;;;;;;;;;16.40;99.90;;;;;;4935373;28;20394;-83
2023/09/13 11:09:24;;;;;;;;;;;16.30;99.90;;;;;;4932597;29;19927;-83
2023/09/13 11:11:52;;;;;;;;;;;16.20;99.90;;;;;;4929517;29;20528;-85
2023/09/13 11:14:22;;;;;;;;;;;16.20;99.90;;;;;;4930563;29;19937;-84
2023/09/13 11:16:48;;;;;;;;;;;16.30;99.90;;;;;;4933294;29;19934;-84
2023/09/13 11:19:16;;;;;;;;;;;16.40;99.90;;;;;;4933799;28;19926;-86
2023/09/13 11:21:45;;;;;;;;;;;16.60;99.90;;;;;;4927482;29;20374;-83
2023/09/13 11:24:11;;;;;;;;;;;16.80;99.90;;;;;;4928283;29;20481;-85
2023/09/13 11:26:48;;;;;;;;;;;17.10;99.90;;;;;;4914977;29;19954;-84
2023/09/13 11:29:37;;;;;;;;;;;17.40;99.90;;;;;;4934233;29;19927;-85
2023/09/13 11:32:06;;;;;;;;;;;17.60;99.90;;;;;;4933981;28;19985;-84
2023/09/13 11:34:34;;;;;;;;;;;17.80;99.90;;;;;;4932759;29;20459;-84
2023/09/13 11:37:01;;;;;;;;;;;18.00;99.90;;;;;;4932841;29;19989;-84
2023/09/13 11:39:27;;;;;;;;;;;18.20;99.90;;;;;;4932571;29;19927;-83
2023/09/13 11:41:55;;;;;;;;;;;18.30;99.90;;;;;;4926284;29;20338;-84
2023/09/13 11:44:21;;;;;;;;;;;18.40;99.90;;;;;;4934863;28;19931;-86
2023/09/13 11:46:48;;;;;;;;;;;18.50;99.90;;;;;;4932236;28;20377;-83
2023/09/13 11:49:18;;;;;;;;;;;18.50;99.90;;;;;;4931261;28;19970;-83
2023/09/13 11:51:46;;;;;;;;;;;18.60;99.90;;;;;;4931645;29;19984;-83
2023/09/13 11:54:15;;;;;;;;;;;18.70;99.90;;;;;;4933244;29;19926;-85
2023/09/13 11:56:43;;;;;;;;;;;18.80;99.90;;;;;;4929939;29;20000;-83
2023/09/13 11:59:09;;;;;;;;;;;18.80;99.90;;;;;;4931100;28;19927;-84
2023/09/13 12:01:41;;;;;;;;;;;18.90;99.90;;;;;;4933778;28;19931;-84
2023/09/13 12:04:08;;;;;;;;;;;19.00;99.90;;;;;;4928144;29;20271;-83
2023/09/13 12:06:41;;;;;;;;;;;19.20;99.90;;;;;;4927852;29;19989;-83
2023/09/13 12:09:10;;;;;;;;;;;19.20;99.90;;;;;;4931522;28;19946;-85
2023/09/13 12:11:36;;;;;;;;;;;19.40;99.90;;;;;;4926248;29;19927;-85
2023/09/13 12:14:02;;;;;;;;;;;19.50;99.90;;;;;;4928924;28;19973;-85
2023/09/13 12:16:29;;;;;;;;;;;19.50;99.90;;;;;;4928960;28;19939;-85
2023/09/13 12:18:55;;;;;;;;;;;19.40;99.90;;;;;;4926063;29;19931;-83
2023/09/13 12:21:20;;;;;;;;;;;19.30;99.90;;;;;;4924090;29;20017;-85
2023/09/13 12:23:46;;;;;;;;;;;19.30;99.90;;;;;;4928041;29;20711;-90
2023/09/13 12:26:13;;;;;;;;;;;19.30;99.90;;;;;;4927422;29;19933;-86
2023/09/13 12:28:40;;;;;;;;;;;19.20;99.90;;;;;;4927746;29;19980;-86
2023/09/13 12:31:06;;;;;;;;;;;19.20;99.90;;;;;;4927364;29;19927;-85
2023/09/13 12:33:32;;;;;;;;;;;19.10;99.90;;;;;;4928782;29;19935;-84
2023/09/13 12:35:58;;;;;;;;;;;19.10;99.90;;;;;;4927826;29;19938;-84
2023/09/13 12:38:24;;;;;;;;;;;19.00;99.90;;;;;;4926125;28;19931;-84
2023/09/13 12:40:52;;;;;;;;;;;19.00;99.90;;;;;;4924576;29;19933;-85
2023/09/13 12:43:19;;;;;;;;;;;19.10;99.90;;;;;;4928475;28;19935;-87
2023/09/13 12:45:44;;;;;;;;;;;19.30;99.90;;;;;;4928409;29;19934;-84
2023/09/13 12:48:10;;;;;;;;;;;19.60;99.90;;;;;;4929589;29;20581;-86
2023/09/13 12:50:36;;;;;;;;;;;19.90;99.90;;;;;;4928241;29;19927;-84
2023/09/13 12:53:02;;;;;;;;;;;20.30;99.90;;;;;;4931352;29;20382;-85
2023/09/13 12:55:29;;;;;;;;;;;20.50;99.90;;;;;;4928469;28;19938;-85
2023/09/13 12:58:00;;;;;;;;;;;20.40;99.90;;;;;;4931131;29;19950;-87
2023/09/13 13:00:26;;;;;;;;;;;20.20;99.90;;;;;;4925115;28;20051;-86
2023/09/13 13:02:53;;;;;;;;;;;19.90;99.90;;;;;;4931386;28;20017;-85
2023/09/13 13:05:19;;;;;;;;;;;19.80;99.90;;;;;;4930934;29;19949;-85
2023/09/13 13:07:45;;;;;;;;;;;19.60;99.90;;;;;;4915360;29;20629;-85
2023/09/13 13:10:15;;;;;;;;;;;19.50;99.90;;;;;;4931164;29;20002;-85
2023/09/13 13:12:41;;;;;;;;;;;19.50;99.90;;;;;;4930921;29;19938;-84
2023/09/13 13:15:07;;;;;;;;;;;19.40;99.90;;;;;;4929513;29;19939;-84
2023/09/13 13:17:35;;;;;;;;;;;19.40;99.90;;;;;;4932608;28;19933;-84
2023/09/13 13:20:07;;;;;;;;;;;19.40;99.90;;;;;;4931287;29;19950;-84
2023/09/13 13:22:33;;;;;;;;;;;19.50;99.90;;;;;;4936975;29;19934;-85
2023/09/13 13:24:59;;;;;;;;;;;19.50;99.90;;;;;;4929695;28;19927;-83
2023/09/13 13:27:28;;;;;;;;;;;19.50;99.90;;;;;;4931472;29;19971;-84
2023/09/13 13:29:54;;;;;;;;;;;19.30;99.90;;;;;;4931847;29;20385;-84
2023/09/13 13:32:19;;;;;;;;;;;19.20;99.90;;;;;;4930310;28;19994;-84
2023/09/13 13:34:45;;;;;;;;;;;19.10;99.90;;;;;;4937137;29;19978;-84
2023/09/13 13:37:11;;;;;;;;;;;19.10;99.90;;;;;;4928582;29;19938;-84
2023/09/13 13:39:36;;;;;;;;;;;19.00;99.90;;;;;;4930693;29;19926;-84
2023/09/13 13:42:03;;;;;;;;;;;18.90;99.90;;;;;;4914849;29;19931;-84
2023/09/13 13:44:28;;;;;;;;;;;18.80;99.90;;;;;;4929762;28;20309;-85
2023/09/13 13:46:54;;;;;;;;;;;18.70;99.90;;;;;;4931456;29;19930;-84
2023/09/13 13:49:19;;;;;;;;;;;18.70;99.90;;;;;;4927161;28;19927;-84
2023/09/13 13:51:49;;;;;;;;;;;18.60;99.90;;;;;;4929041;29;19927;-84
2023/09/13 13:54:14;;;;;;;;;;;18.50;99.90;;;;;;4931747;28;20445;-86
2023/09/13 13:56:41;;;;;;;;;;;18.50;99.90;;;;;;4929921;29;20009;-85
2023/09/13 13:59:09;;;;;;;;;;;18.40;99.90;;;;;;4931102;29;19949;-84
2023/09/13 14:01:34;;;;;;;;;;;18.40;99.90;;;;;;4930364;29;19942;-84
2023/09/13 14:04:00;;;;;;;;;;;18.40;99.90;;;;;;4930776;28;19927;-85
2023/09/13 14:06:26;;;;;;;;;;;18.40;99.90;;;;;;4913965;29;19935;-84
2023/09/13 14:08:51;;;;;;;;;;;18.40;99.90;;;;;;4930102;28;19934;-85
2023/09/13 14:11:17;;;;;;;;;;;18.50;99.90;;;;;;4931112;28;19927;-84
2023/09/13 14:13:42;;;;;;;;;;;18.60;99.90;;;;;;4930763;29;19926;-84